Whyalla, Australia
Current Conditions -  °F | °C
As of 3:00 PM on Friday 28 Nov 2014 (Local Time) from YWHA Reporting Station
Clear Clear  
Wind Chill: 82°   Ceiling: Unl
Heat Index: 82°   Visibility: 6mi
Dew Point: 46°   Wind: 9mph
Humidity: 28%   Direction: 140°SE
Pressure: 29.94"   Gusts: NA
Location:  33.03°S, 137.59°E
Report Text: YWHA 280500Z AUTO 14008KT 9999 // NCD 28/08 Q1014
Loading
Personal Weather Stations






























Interactive Weather Map New forecast layout! Learn more

10-Day Weather Forecast

Advertisements
Track Severe Weather on mobile